Time;durP1;ratioP1;P1;durP2;ratioP2;P2;SDS_P1;SDS_P2;PMS_P1;PMS_P2;Temp;Humidity;BMP_temperature;BMP_pressure;BME280_temperature;BME280_humidity;BME280_pressure;Samples;Min_cycle;Max_cycle;Signal;HPM_P1;HPM_P2
2022/04/04 00:00:10;;;;;;;0.10;0.10;;;0.40;99.90;;;;;;4970157;28;20043;-61
2022/04/04 00:02:37;;;;;;;0.10;0.10;;;0.40;99.90;;;;;;4955297;28;20042;-61
2022/04/04 00:05:03;;;;;;;0.43;0.43;;;0.40;99.90;;;;;;4970015;28;20411;-61
2022/04/04 00:07:29;;;;;;;1.98;1.25;;;0.40;99.90;;;;;;4955055;28;20090;-61
2022/04/04 00:09:55;;;;;;;0.20;0.20;;;0.30;99.90;;;;;;4954863;28;20599;-61
2022/04/04 00:12:21;;;;;;;0.10;0.10;;;0.30;99.90;;;;;;4955195;28;20118;-61
2022/04/04 00:14:48;;;;;;;0.75;0.75;;;0.30;99.90;;;;;;4954852;28;20115;-61
2022/04/04 00:17:14;;;;;;;0.10;0.10;;;0.20;99.90;;;;;;4954441;28;20051;-61
2022/04/04 00:19:40;;;;;;;0.20;0.20;;;0.20;99.90;;;;;;4969836;28;20039;-61
2022/04/04 00:22:06;;;;;;;1.50;1.40;;;0.20;99.90;;;;;;4969531;28;20038;-61
2022/04/04 00:24:33;;;;;;;0.22;0.22;;;0.30;99.90;;;;;;4955072;28;20031;-61
2022/04/04 00:26:59;;;;;;;1.33;1.23;;;0.30;99.90;;;;;;4954225;28;20073;-61
2022/04/04 00:29:25;;;;;;;0.10;0.10;;;0.20;99.90;;;;;;4954469;28;20155;-61
2022/04/04 00:31:52;;;;;;;0.10;0.10;;;0.20;99.90;;;;;;4969307;28;20035;-61
2022/04/04 00:34:18;;;;;;;3.45;1.85;;;0.20;99.90;;;;;;4953335;29;20037;-61
2022/04/04 00:36:45;;;;;;;3.53;0.73;;;0.20;99.90;;;;;;4954240;28;20039;-62
2022/04/04 00:39:15;;;;;;;0.20;0.20;;;0.20;99.90;;;;;;4954502;28;20495;-61
2022/04/04 00:41:43;;;;;;;0.10;0.10;;;0.20;99.90;;;;;;4953444;29;20114;-61
2022/04/04 00:44:09;;;;;;;0.10;0.10;;;0.20;99.90;;;;;;4954182;28;20433;-61
2022/04/04 00:46:41;;;;;;;0.10;0.10;;;0.20;99.90;;;;;;4953118;29;20106;-61
2022/04/04 00:49:08;;;;;;;;;;;0.10;99.90;;;;;;4969433;28;20397;-61
2022/04/04 00:51:35;;;;;;;0.13;0.13;;;0.10;99.90;;;;;;4968919;28;19911;-61
2022/04/04 00:54:03;;;;;;;1.00;1.00;;;0.00;99.90;;;;;;4954108;28;20118;-61
2022/04/04 00:56:32;;;;;;;0.10;0.10;;;0.00;99.90;;;;;;4953937;28;20411;-61
2022/04/04 00:59:00;;;;;;;1.23;1.20;;;-0.10;99.90;;;;;;4954065;28;20036;-61
2022/04/04 01:01:26;;;;;;;0.10;0.10;;;-0.10;99.90;;;;;;4953792;28;20098;-61
2022/04/04 01:03:51;;;;;;;0.10;0.10;;;-0.20;99.90;;;;;;4953880;28;20039;-61
2022/04/04 01:06:18;;;;;;;0.75;0.75;;;-0.10;99.90;;;;;;4962407;28;20067;-61
2022/04/04 01:08:44;;;;;;;0.13;0.13;;;-0.20;99.90;;;;;;4952698;28;20026;-61
2022/04/04 01:11:11;;;;;;;0.93;0.93;;;-0.20;99.90;;;;;;4953868;28;20031;-61
2022/04/04 01:13:44;;;;;;;1.55;1.45;;;-0.20;99.90;;;;;;4953880;28;20023;-61
2022/04/04 01:16:10;;;;;;;0.77;0.77;;;-0.20;99.90;;;;;;4952303;29;20396;-61
2022/04/04 01:18:36;;;;;;;1.88;1.75;;;-0.20;99.90;;;;;;4953124;28;20046;-61
2022/04/04 01:21:02;;;;;;;0.20;0.20;;;-0.30;99.90;;;;;;4953675;28;20098;-61
2022/04/04 01:23:41;;;;;;;0.10;0.10;;;-0.30;99.90;;;;;;4953737;28;20159;-61
2022/04/04 01:26:13;;;;;;;0.43;0.43;;;-0.30;99.90;;;;;;4952703;29;20027;-61
2022/04/04 01:28:40;;;;;;;0.25;0.25;;;-0.40;99.90;;;;;;4936316;29;20462;-61
2022/04/04 01:31:07;;;;;;;0.10;0.10;;;-0.30;99.90;;;;;;4953163;29;20391;-61
2022/04/04 01:33:34;;;;;;;0.10;0.10;;;-0.30;99.90;;;;;;4952020;29;20035;-60
2022/04/04 01:36:00;;;;;;;0.20;0.20;;;-0.40;99.90;;;;;;4953748;28;20039;-61
2022/04/04 01:38:26;;;;;;;0.17;0.17;;;-0.40;99.90;;;;;;4952047;29;20058;-61
2022/04/04 01:40:52;;;;;;;0.10;0.10;;;-0.40;99.90;;;;;;4953203;28;20027;-61
2022/04/04 01:43:19;;;;;;;5.82;1.95;;;-0.40;99.90;;;;;;4951991;29;20394;-61
2022/04/04 01:48:37;;;;;;;0.28;0.28;;;-0.40;99.90;;;;;;4952241;29;20040;-61
2022/04/04 01:51:04;;;;;;;0.10;0.10;;;-0.50;99.90;;;;;;4953585;28;20474;-61
2022/04/04 01:53:31;;;;;;;0.10;0.10;;;-0.50;99.90;;;;;;4951604;29;20071;-60
2022/04/04 01:56:03;;;;;;;0.10;0.10;;;-0.50;99.90;;;;;;4952771;28;20024;-61
2022/04/04 01:58:30;;;;;;;0.15;0.15;;;-0.50;99.90;;;;;;4951374;29;20047;-61
2022/04/04 02:00:58;;;;;;;0.68;0.68;;;-0.60;99.90;;;;;;4950475;23;20048;-61
2022/04/04 02:03:25;;;;;;;0.10;0.10;;;-0.60;99.90;;;;;;4994097;28;20039;-61
2022/04/04 02:05:51;;;;;;;0.10;0.10;;;-0.60;99.90;;;;;;4984020;28;20098;-61
2022/04/04 02:08:17;;;;;;;0.17;0.17;;;-0.60;99.90;;;;;;4952823;29;20027;-61
2022/04/04 02:10:44;;;;;;;0.30;0.30;;;-0.70;99.90;;;;;;4983738;28;20027;-61
2022/04/04 02:13:10;;;;;;;0.57;0.38;;;-0.70;99.90;;;;;;4951903;29;20062;-62
2022/04/04 02:15:36;;;;;;;0.52;0.52;;;-0.70;99.90;;;;;;4971620;28;20505;-61
2022/04/04 02:18:02;;;;;;;0.40;0.32;;;-0.70;99.90;;;;;;4989949;28;20034;-62
2022/04/04 02:20:28;;;;;;;0.10;0.10;;;-0.60;99.90;;;;;;4989626;28;20034;-61
2022/04/04 02:22:54;;;;;;;0.30;0.30;;;-0.70;99.90;;;;;;4991360;28;20031;-62
2022/04/04 02:25:19;;;;;;;0.35;0.35;;;-0.70;99.90;;;;;;4991356;28;20034;-61
2022/04/04 02:27:45;;;;;;;0.75;0.75;;;-0.70;99.90;;;;;;4990689;28;20495;-62
2022/04/04 02:30:12;;;;;;;0.52;0.52;;;-0.70;99.90;;;;;;4991576;28;20082;-63
2022/04/04 02:32:37;;;;;;;0.15;0.15;;;-0.60;99.90;;;;;;4991232;28;20467;-62
2022/04/04 02:35:04;;;;;;;0.10;0.10;;;-0.70;99.90;;;;;;4991385;28;20022;-62
2022/04/04 02:37:30;;;;;;;0.10;0.10;;;-0.70;99.90;;;;;;4989862;28;20022;-61
2022/04/04 02:39:56;;;;;;;0.10;0.10;;;-0.80;99.90;;;;;;4991284;28;20033;-61
2022/04/04 02:42:23;;;;;;;0.10;0.10;;;-0.80;99.90;;;;;;4989591;28;20030;-61
2022/04/04 02:44:49;;;;;;;0.68;0.68;;;-0.80;99.90;;;;;;4990070;28;20065;-61
2022/04/04 02:47:15;;;;;;;0.30;0.30;;;-0.80;99.90;;;;;;4990442;28;20030;-61
2022/04/04 02:49:40;;;;;;;0.55;0.55;;;-0.80;99.90;;;;;;4991294;28;20065;-61
2022/04/04 02:52:06;;;;;;;0.10;0.10;;;-0.90;99.90;;;;;;4991240;28;20033;-62
2022/04/04 02:54:32;;;;;;;0.20;0.20;;;-0.90;99.90;;;;;;4989584;28;20120;-62
2022/04/04 02:56:58;;;;;;;0.10;0.10;;;-0.90;99.90;;;;;;4990936;28;20535;-62
2022/04/04 02:59:24;;;;;;;0.10;0.10;;;-0.90;99.90;;;;;;4990051;28;20041;-62
2022/04/04 03:01:49;;;;;;;0.20;0.20;;;-0.90;99.90;;;;;;4989577;28;20071;-61
2022/04/04 03:04:16;;;;;;;0.10;0.10;;;-0.90;99.90;;;;;;4990782;28;20084;-62
2022/04/04 03:06:43;;;;;;;0.32;0.32;;;-0.90;99.90;;;;;;4990518;28;20038;-61
2022/04/04 03:09:09;;;;;;;0.10;0.10;;;-0.90;99.90;;;;;;4990694;28;20109;-62
2022/04/04 03:11:37;;;;;;;0.10;0.10;;;-1.00;99.90;;;;;;4989490;28;20173;-61
2022/04/04 03:14:05;;;;;;;0.30;0.30;;;-1.00;99.90;;;;;;4990983;28;20434;-61
2022/04/04 03:16:31;;;;;;;0.20;0.20;;;-1.00;99.90;;;;;;4972771;28;20030;-62
2022/04/04 03:18:59;;;;;;;0.10;0.10;;;-1.00;99.90;;;;;;4971566;28;20026;-61
2022/04/04 03:21:29;;;;;;;1.50;1.45;;;-1.10;99.90;;;;;;4970180;28;20505;-61
2022/04/04 03:23:55;;;;;;;0.10;0.10;;;-1.10;99.90;;;;;;4970797;28;20054;-61
2022/04/04 03:26:21;;;;;;;0.40;0.40;;;-1.10;99.90;;;;;;4971128;28;20407;-62
2022/04/04 03:28:47;;;;;;;0.10;0.10;;;-1.10;99.90;;;;;;4971468;28;20050;-61
2022/04/04 03:31:13;;;;;;;0.40;0.40;;;-1.10;99.90;;;;;;4971953;28;20031;-61
2022/04/04 03:33:39;;;;;;;4.22;1.33;;;-1.20;99.90;;;;;;4973635;28;20023;-61
2022/04/04 03:36:06;;;;;;;0.10;0.10;;;-1.20;99.90;;;;;;4975251;28;20039;-61
2022/04/04 03:38:33;;;;;;;0.70;0.68;;;-1.20;99.90;;;;;;4974124;28;20026;-62
2022/04/04 03:40:59;;;;;;;0.10;0.10;;;-1.20;99.90;;;;;;4972541;28;20031;-61
2022/04/04 03:43:25;;;;;;;0.40;0.40;;;-1.20;99.90;;;;;;4962448;28;20391;-62
2022/04/04 03:45:51;;;;;;;0.10;0.10;;;-1.10;99.90;;;;;;4967982;28;20035;-61
2022/04/04 03:48:22;;;;;;;0.20;0.20;;;-1.10;99.90;;;;;;4966434;28;20043;-61
2022/04/04 03:50:51;;;;;;;0.20;0.20;;;-1.20;99.90;;;;;;4962784;28;20050;-62
2022/04/04 03:53:17;;;;;;;0.10;0.10;;;-1.10;99.90;;;;;;4971806;28;20034;-61
2022/04/04 03:55:43;;;;;;;0.75;0.75;;;-1.10;99.90;;;;;;4980936;28;20522;-58
2022/04/04 03:58:10;;;;;;;0.52;0.52;;;-1.10;99.90;;;;;;4955129;28;20097;-62
2022/04/04 04:00:38;;;;;;;0.20;0.20;;;-1.10;99.90;;;;;;4972767;28;20027;-59
2022/04/04 04:03:05;;;;;;;0.10;0.10;;;-1.10;99.90;;;;;;4969524;28;20043;-61
2022/04/04 04:05:31;;;;;;;0.10;0.10;;;-1.10;99.90;;;;;;4972625;28;20037;-58
2022/04/04 04:07:56;;;;;;;0.82;0.82;;;-1.10;99.90;;;;;;4973833;28;20395;-60
2022/04/04 04:10:22;;;;;;;0.55;0.55;;;-1.10;99.90;;;;;;4973169;28;20471;-60
2022/04/04 04:12:50;;;;;;;0.17;0.17;;;-1.10;99.90;;;;;;4974090;28;20023;-60
2022/04/04 04:15:23;;;;;;;0.40;0.40;;;-1.20;99.90;;;;;;4973831;28;20074;-59
2022/04/04 04:17:52;;;;;;;1.58;1.48;;;-1.10;99.90;;;;;;4972613;28;20054;-60
2022/04/04 04:20:26;;;;;;;0.15;0.15;;;-1.10;99.90;;;;;;4956533;28;20089;-60
2022/04/04 04:23:05;;;;;;;0.10;0.10;;;-1.10;99.90;;;;;;4973808;28;20031;-60
2022/04/04 04:25:34;;;;;;;0.10;0.10;;;-1.10;99.90;;;;;;4967376;28;20023;-60
2022/04/04 04:28:03;;;;;;;0.10;0.10;;;-1.10;99.90;;;;;;4954375;28;20087;-59
2022/04/04 04:30:30;;;;;;;0.25;0.25;;;-1.10;99.90;;;;;;4952887;29;20493;-61
2022/04/04 04:32:57;;;;;;;0.13;0.13;;;-1.10;99.90;;;;;;4953226;29;20037;-58
2022/04/04 04:35:24;;;;;;;2.15;1.95;;;-1.10;99.90;;;;;;4952866;28;20030;-58
2022/04/04 04:37:51;;;;;;;0.10;0.10;;;-1.10;99.90;;;;;;4952886;29;20510;-58
2022/04/04 04:40:17;;;;;;;0.10;0.10;;;-1.20;99.90;;;;;;4953026;28;20043;-60
2022/04/04 04:42:45;;;;;;;1.58;0.95;;;-1.20;99.90;;;;;;4952328;28;20035;-58
2022/04/04 04:45:12;;;;;;;0.30;0.30;;;-1.20;99.90;;;;;;4973337;28;20042;-59
2022/04/04 04:47:38;;;;;;;0.10;0.10;;;-1.20;99.90;;;;;;4973057;28;20038;-60
2022/04/04 04:50:06;;;;;;;0.20;0.20;;;-1.20;99.90;;;;;;4925769;28;20518;-59
2022/04/04 04:52:33;;;;;;;0.10;0.10;;;-1.20;99.90;;;;;;4958515;28;20031;-58
2022/04/04 04:55:00;;;;;;;0.15;0.15;;;-1.30;99.90;;;;;;4952981;29;20035;-60
2022/04/04 04:57:26;;;;;;;1.48;1.38;;;-1.30;99.90;;;;;;4952272;28;20031;-60
2022/04/04 04:59:52;;;;;;;0.10;0.10;;;-1.30;99.90;;;;;;4952765;29;20027;-59
2022/04/04 05:02:18;;;;;;;0.52;0.52;;;-1.40;99.90;;;;;;4952569;29;20038;-59
2022/04/04 05:04:44;;;;;;;0.30;0.30;;;-1.30;99.90;;;;;;4954125;28;20035;-56
2022/04/04 05:07:10;;;;;;;0.15;0.15;;;-1.30;99.90;;;;;;4951885;29;20031;-58
2022/04/04 05:09:36;;;;;;;0.20;0.20;;;-1.30;99.90;;;;;;4953461;28;20046;-60
2022/04/04 05:12:03;;;;;;;0.10;0.10;;;-1.30;99.90;;;;;;4960763;28;20030;-62
2022/04/04 05:14:28;;;;;;;0.30;0.30;;;-1.40;99.90;;;;;;4963595;28;20023;-60
2022/04/04 05:16:55;;;;;;;0.10;0.10;;;-1.40;99.90;;;;;;4969680;28;20039;-59
2022/04/04 05:19:22;;;;;;;0.10;0.10;;;-1.40;99.90;;;;;;4969643;28;20042;-58
2022/04/04 05:21:49;;;;;;;0.35;0.35;;;-1.40;99.90;;;;;;4968541;28;20022;-60
2022/04/04 05:24:16;;;;;;;0.20;0.20;;;-1.30;99.90;;;;;;4963884;28;20050;-61
2022/04/04 05:26:43;;;;;;;0.10;0.10;;;-1.30;99.90;;;;;;4961831;28;20027;-60
2022/04/04 05:29:08;;;;;;;0.10;0.10;;;-1.20;99.90;;;;;;4970375;28;20258;-57
2022/04/04 05:31:35;;;;;;;0.10;0.10;;;-1.20;99.90;;;;;;4972437;28;20637;-60
2022/04/04 05:34:07;;;;;;;0.10;0.10;;;-1.20;99.90;;;;;;4966321;28;20125;-59
2022/04/04 05:36:33;;;;;;;0.20;0.20;;;-1.10;99.90;;;;;;4970636;28;20055;-60
2022/04/04 05:39:00;;;;;;;0.80;0.80;;;-1.10;99.90;;;;;;4970381;28;20081;-59
2022/04/04 05:41:27;;;;;;;0.10;0.10;;;-1.10;99.90;;;;;;4972064;28;20109;-60
2022/04/04 05:43:54;;;;;;;0.10;0.10;;;-1.10;99.90;;;;;;4970681;28;20022;-60
2022/04/04 05:46:19;;;;;;;0.10;0.10;;;-1.10;99.90;;;;;;4970669;28;20035;-57
2022/04/04 05:48:47;;;;;;;0.57;0.57;;;-1.00;99.90;;;;;;4969231;28;20129;-59
2022/04/04 05:51:15;;;;;;;0.20;0.20;;;-1.00;99.90;;;;;;4967276;28;20031;-58
2022/04/04 05:53:41;;;;;;;0.10;0.10;;;-1.00;99.90;;;;;;4967341;28;20395;-58
2022/04/04 05:56:07;;;;;;;0.20;0.20;;;-0.90;99.90;;;;;;4969176;28;20037;-59
2022/04/04 05:58:33;;;;;;;0.10;0.10;;;-0.90;99.90;;;;;;4971043;28;20027;-58
2022/04/04 06:00:58;;;;;;;1.02;0.50;;;-0.90;99.90;;;;;;4972078;28;20696;-60
2022/04/04 06:03:24;;;;;;;0.55;0.55;;;-0.90;99.90;;;;;;4971906;28;20118;-58
2022/04/04 06:05:51;;;;;;;1.15;1.08;;;-0.90;99.90;;;;;;4972290;28;20418;-57
2022/04/04 06:08:18;;;;;;;0.28;0.28;;;-0.90;99.90;;;;;;4954596;28;20026;-60
2022/04/04 06:10:45;;;;;;;0.10;0.10;;;-0.90;99.90;;;;;;4970611;28;20037;-57
2022/04/04 06:13:14;;;;;;;0.40;0.40;;;-0.90;99.90;;;;;;4970764;28;20041;-60
2022/04/04 06:15:40;;;;;;;0.10;0.10;;;-0.80;99.90;;;;;;4971174;28;20089;-58
2022/04/04 06:18:06;;;;;;;0.10;0.10;;;-0.70;99.90;;;;;;4972020;28;20088;-59
2022/04/04 06:20:32;;;;;;;1.40;1.30;;;-0.70;99.90;;;;;;4971567;28;20027;-59
2022/04/04 06:22:58;;;;;;;0.10;0.10;;;-0.60;99.90;;;;;;4970990;28;20085;-58
2022/04/04 06:25:24;;;;;;;0.10;0.10;;;-0.50;99.90;;;;;;4971773;28;20053;-60
2022/04/04 06:27:50;;;;;;;0.10;0.10;;;-0.50;99.90;;;;;;4971696;28;20031;-60
2022/04/04 06:30:16;;;;;;;0.85;0.85;;;-0.30;99.90;;;;;;4971871;28;20031;-58
2022/04/04 06:32:45;;;;;;;0.10;0.10;;;-0.30;99.90;;;;;;4971619;28;20521;-58
2022/04/04 06:35:13;;;;;;;0.43;0.43;;;-0.20;99.90;;;;;;4972029;28;20027;-58
2022/04/04 06:37:39;;;;;;;0.10;0.10;;;-0.10;99.90;;;;;;4971285;28;20066;-59
2022/04/04 06:40:06;;;;;;;0.10;0.10;;;-0.10;99.90;;;;;;4970467;28;20069;-58
2022/04/04 06:42:41;;;;;;;0.10;0.10;;;0.00;99.90;;;;;;4971781;28;20027;-60
2022/04/04 06:45:09;;;;;;;0.10;0.10;;;0.00;99.90;;;;;;4971659;28;20403;-59
2022/04/04 06:47:36;;;;;;;0.40;0.40;;;0.10;99.90;;;;;;4969976;28;20121;-60
2022/04/04 06:50:03;;;;;;;0.10;0.10;;;0.20;99.90;;;;;;4970320;28;20031;-58
2022/04/04 06:52:28;;;;;;;0.73;0.73;;;0.20;99.90;;;;;;4970557;28;20182;-59
2022/04/04 06:54:56;;;;;;;0.85;0.85;;;0.30;99.90;;;;;;4970492;28;20122;-60
2022/04/04 06:57:23;;;;;;;0.10;0.10;;;0.40;99.90;;;;;;4971439;28;20031;-60
2022/04/04 06:59:49;;;;;;;0.10;0.10;;;0.50;99.90;;;;;;4971812;28;20155;-59
2022/04/04 07:02:16;;;;;;;3.53;1.20;;;0.60;99.90;;;;;;4969750;28;20031;-60
2022/04/04 07:04:44;;;;;;;0.65;0.55;;;0.80;99.90;;;;;;4971284;28;20033;-56
2022/04/04 07:07:10;;;;;;;0.32;0.32;;;0.80;99.90;;;;;;4957824;28;20030;-60
2022/04/04 07:09:36;;;;;;;1.05;1.05;;;0.90;99.90;;;;;;4990243;28;20034;-58
2022/04/04 07:12:05;;;;;;;0.32;0.32;;;1.00;99.90;;;;;;4974046;28;20030;-59
2022/04/04 07:14:31;;;;;;;0.65;0.65;;;1.10;99.90;;;;;;4975410;28;20482;-59
2022/04/04 07:16:56;;;;;;;0.10;0.10;;;1.20;99.90;;;;;;4974922;28;20074;-57
2022/04/04 07:19:23;;;;;;;0.20;0.20;;;1.30;99.90;;;;;;4975338;28;20039;-60
2022/04/04 07:21:55;;;;;;;0.50;0.50;;;1.40;99.90;;;;;;4974884;28;20035;-60
2022/04/04 07:24:20;;;;;;;0.20;0.20;;;1.60;99.90;;;;;;4975503;28;20117;-58
2022/04/04 07:26:48;;;;;;;0.45;0.45;;;1.70;99.90;;;;;;4975018;28;20133;-59
2022/04/04 07:29:15;;;;;;;0.85;0.85;;;1.90;99.90;;;;;;4974145;28;20027;-60
2022/04/04 07:31:42;;;;;;;1.38;0.43;;;2.00;99.90;;;;;;4974972;28;20238;-59
2022/04/04 07:34:11;;;;;;;0.52;0.52;;;2.20;99.90;;;;;;4973570;28;20018;-59
2022/04/04 07:36:40;;;;;;;0.40;0.40;;;2.30;99.90;;;;;;4973733;28;20031;-58
2022/04/04 07:39:07;;;;;;;0.10;0.10;;;2.50;99.90;;;;;;4973726;28;20037;-58
2022/04/04 07:41:33;;;;;;;0.73;0.73;;;2.60;99.90;;;;;;4974918;28;20027;-59
2022/04/04 07:43:59;;;;;;;0.30;0.30;;;2.60;99.90;;;;;;4974712;28;20040;-57
2022/04/04 07:46:26;;;;;;;0.00;0.00;;;2.70;99.90;;;;;;4973117;28;20435;-58
2022/04/04 07:48:57;;;;;;;0.10;0.10;;;2.80;99.90;;;;;;4973699;28;20040;-59
2022/04/04 07:51:23;;;;;;;0.75;0.68;;;2.90;99.90;;;;;;4974002;28;20026;-59
2022/04/04 07:53:49;;;;;;;0.10;0.10;;;2.90;99.90;;;;;;4973562;28;20038;-59
2022/04/04 07:56:15;;;;;;;0.10;0.10;;;3.10;99.90;;;;;;4957503;28;20110;-59
2022/04/04 07:58:42;;;;;;;0.80;0.80;;;3.10;99.90;;;;;;4954864;28;20094;-57
2022/04/04 08:01:07;;;;;;;4.07;2.83;;;3.20;99.90;;;;;;4972045;28;20051;-58
2022/04/04 08:03:34;;;;;;;1.35;0.95;;;3.40;99.90;;;;;;4974625;28;20070;-58
2022/04/04 08:06:01;;;;;;;0.20;0.20;;;3.40;99.90;;;;;;4974834;28;20623;-58
2022/04/04 08:08:27;;;;;;;0.08;0.08;;;3.40;99.90;;;;;;4972819;28;20038;-57
2022/04/04 08:10:53;;;;;;;0.75;0.60;;;3.40;99.90;;;;;;4974682;28;20027;-55
2022/04/04 08:13:18;;;;;;;0.10;0.10;;;3.60;99.90;;;;;;4973215;28;20035;-59
2022/04/04 08:15:45;;;;;;;0.13;0.13;;;3.70;99.90;;;;;;4972559;28;20546;-57
2022/04/04 08:18:11;;;;;;;0.03;0.03;;;3.70;99.90;;;;;;4972890;28;20038;-58
2022/04/04 08:20:37;;;;;;;0.00;0.00;;;3.70;99.90;;;;;;4974205;28;20407;-57
2022/04/04 08:23:02;;;;;;;0.10;0.10;;;3.90;99.90;;;;;;4974290;28;20053;-59
2022/04/04 08:25:28;;;;;;;2.97;1.38;;;4.00;99.90;;;;;;4972787;28;20038;-58
2022/04/04 08:27:54;;;;;;;0.50;0.50;;;4.10;99.90;;;;;;4974129;28;20133;-58
2022/04/04 08:30:20;;;;;;;0.15;0.15;;;4.10;99.90;;;;;;4973998;28;20071;-58
2022/04/04 08:32:46;;;;;;;0.20;0.20;;;4.10;99.90;;;;;;4973097;28;20102;-60
2022/04/04 08:35:14;;;;;;;0.10;0.10;;;4.40;99.90;;;;;;4956644;28;20023;-59
2022/04/04 08:37:43;;;;;;;0.35;0.35;;;4.40;99.90;;;;;;4972483;28;20407;-56
2022/04/04 08:40:12;;;;;;;0.30;0.30;;;4.50;99.90;;;;;;4972685;28;20066;-57
2022/04/04 08:42:38;;;;;;;0.00;0.00;;;4.60;99.90;;;;;;4973750;28;20113;-58
2022/04/04 08:45:06;;;;;;;1.08;1.02;;;4.60;99.90;;;;;;4972642;28;20034;-59
2022/04/04 08:47:33;;;;;;;4.80;2.30;;;4.80;99.90;;;;;;4972200;28;20043;-59
2022/04/04 08:50:01;;;;;;;0.30;0.30;;;4.90;99.90;;;;;;4973638;28;20133;-59
2022/04/04 08:52:27;;;;;;;0.10;0.10;;;4.80;99.10;;;;;;4972410;28;20094;-57
2022/04/04 08:54:53;;;;;;;0.10;0.10;;;4.70;99.90;;;;;;4972876;28;20039;-59
2022/04/04 08:57:19;;;;;;;0.65;0.65;;;4.80;99.40;;;;;;4972040;28;20042;-57
2022/04/04 08:59:46;;;;;;;0.10;0.10;;;4.80;99.90;;;;;;4972508;28;20037;-55
2022/04/04 09:02:13;;;;;;;0.00;0.00;;;4.90;99.80;;;;;;4972106;28;20038;-59
2022/04/04 09:04:40;;;;;;;0.20;0.20;;;5.00;99.70;;;;;;4972217;28;20027;-58
2022/04/04 09:07:11;;;;;;;0.25;0.25;;;5.00;99.50;;;;;;4971745;28;20400;-58
2022/04/04 09:09:41;;;;;;;;;;;5.10;98.20;;;;;;4972781;28;20031;-59
2022/04/04 09:12:11;;;;;;;1.00;1.00;;;5.10;98.10;;;;;;4973010;28;20362;-59
2022/04/04 09:14:51;;;;;;;0.68;0.68;;;5.30;98.50;;;;;;4971947;28;20031;-59
2022/04/04 09:17:21;;;;;;;0.47;0.47;;;5.30;98.50;;;;;;4973004;28;20029;-60
2022/04/04 09:19:47;;;;;;;2.30;1.73;;;5.30;97.90;;;;;;4971923;28;20034;-60
2022/04/04 09:22:16;;;;;;;0.10;0.10;;;5.50;97.30;;;;;;4973320;28;20063;-57
2022/04/04 09:25:02;;;;;;;0.80;0.80;;;5.50;97.20;;;;;;4971884;28;20477;-59
2022/04/04 09:27:32;;;;;;;0.10;0.10;;;5.70;97.70;;;;;;4971589;28;20522;-59
2022/04/04 09:30:07;;;;;;;0.10;0.10;;;5.90;96.50;;;;;;4955705;28;20387;-59
2022/04/04 09:32:44;;;;;;;1.08;1.08;;;6.00;95.10;;;;;;4972716;28;20078;-60
2022/04/04 09:35:18;;;;;;;0.00;0.00;;;6.00;94.50;;;;;;4973214;28;20027;-64
2022/04/04 09:37:52;;;;;;;0.15;0.15;;;6.00;94.50;;;;;;4971418;28;20414;-59
2022/04/04 09:40:24;;;;;;;0.60;0.60;;;6.20;93.30;;;;;;4972575;28;20402;-59
2022/04/04 09:42:53;;;;;;;0.10;0.10;;;6.20;94.50;;;;;;4972770;28;20031;-58
2022/04/04 09:45:24;;;;;;;0.38;0.38;;;6.30;93.80;;;;;;4972569;28;20097;-59
2022/04/04 09:47:55;;;;;;;18.85;2.25;;;6.50;93.30;;;;;;4971350;28;20034;-58
2022/04/04 09:50:30;;;;;;;1.65;1.25;;;6.50;93.10;;;;;;4972754;28;20126;-60
2022/04/04 09:52:57;;;;;;;0.05;0.05;;;6.70;93.10;;;;;;4972803;28;20027;-59
2022/04/04 09:55:31;;;;;;;0.05;0.05;;;6.80;92.00;;;;;;4972670;28;20039;-56
2022/04/04 09:57:59;;;;;;;0.30;0.30;;;6.70;91.50;;;;;;4971673;28;20030;-60
2022/04/04 10:00:27;;;;;;;2.30;1.38;;;6.70;90.90;;;;;;4970421;28;20454;-59
2022/04/04 10:02:58;;;;;;;3.85;0.70;;;6.80;91.30;;;;;;4951612;28;20041;-58
2022/04/04 10:05:28;;;;;;;0.28;0.28;;;6.90;91.50;;;;;;4953754;28;20031;-58
2022/04/04 10:07:57;;;;;;;0.03;0.03;;;7.10;91.30;;;;;;4951224;28;20027;-58
2022/04/04 10:10:28;;;;;;;0.32;0.32;;;7.20;90.70;;;;;;4951498;29;20027;-59
2022/04/04 10:12:55;;;;;;;0.10;0.10;;;7.20;90.20;;;;;;4954593;28;20035;-59
2022/04/04 10:15:23;;;;;;;1.65;1.27;;;7.10;89.10;;;;;;4972262;28;20022;-56
2022/04/04 10:17:52;;;;;;;0.30;0.30;;;7.10;87.90;;;;;;4970459;28;20026;-58
2022/04/04 10:20:22;;;;;;;0.20;0.20;;;7.30;90.10;;;;;;4971708;28;20097;-56
2022/04/04 10:22:54;;;;;;;0.10;0.10;;;7.50;88.70;;;;;;4971674;28;20031;-59
2022/04/04 10:25:26;;;;;;;0.50;0.40;;;7.50;86.40;;;;;;4970833;28;20522;-60
2022/04/04 10:27:52;;;;;;;0.20;0.20;;;7.70;85.90;;;;;;4970325;28;20471;-59
2022/04/04 10:30:30;;;;;;;0.30;0.30;;;7.70;85.90;;;;;;4970602;28;20415;-58
2022/04/04 10:32:56;;;;;;;0.68;0.68;;;7.70;86.10;;;;;;4970799;28;20035;-59
2022/04/04 10:35:25;;;;;;;2.50;2.30;;;7.90;85.30;;;;;;4971533;28;20089;-60
2022/04/04 10:37:51;;;;;;;0.00;0.00;;;7.70;85.40;;;;;;4970362;28;20432;-58
2022/04/04 10:40:25;;;;;;;0.50;0.50;;;7.70;86.60;;;;;;4970249;28;20035;-55
2022/04/04 10:43:13;;;;;;;0.10;0.10;;;7.70;86.40;;;;;;4971335;28;20037;-59
2022/04/04 10:46:09;;;;;;;0.63;0.40;;;7.70;84.70;;;;;;4971568;28;20047;-58
2022/04/04 10:48:40;;;;;;;0.00;0.00;;;8.10;85.70;;;;;;4968902;28;20039;-59
2022/04/04 10:51:14;;;;;;;2.65;1.85;;;8.20;83.10;;;;;;4970336;28;20034;-58
2022/04/04 10:53:49;;;;;;;0.57;0.57;;;8.60;84.90;;;;;;4971704;28;20038;-59
2022/04/04 10:56:36;;;;;;;0.88;0.80;;;8.30;82.90;;;;;;4970387;28;20027;-59
2022/04/04 10:59:19;;;;;;;0.25;0.25;;;8.30;82.90;;;;;;4971456;28;20042;-59
2022/04/04 11:01:46;;;;;;;1.13;0.40;;;8.30;82.90;;;;;;4971224;28;20034;-61
2022/04/04 11:04:25;;;;;;;0.75;0.68;;;8.30;83.80;;;;;;4971269;28;20031;-58
2022/04/04 11:10:06;;;;;;;0.10;0.10;;;7.90;84.10;;;;;;4970055;28;20031;-59
2022/04/04 11:13:00;;;;;;;1.40;1.30;;;8.10;80.40;;;;;;4971202;28;20031;-60
2022/04/04 11:15:49;;;;;;;0.75;0.75;;;8.30;81.30;;;;;;4953974;28;20077;-58
2022/04/04 11:18:15;;;;;;;0.00;0.00;;;8.40;82.00;;;;;;4971133;28;20039;-59
2022/04/04 11:20:58;;;;;;;0.35;0.35;;;8.60;82.00;;;;;;4970969;28;20101;-59
2022/04/04 11:23:33;;;;;;;0.13;0.13;;;8.60;78.70;;;;;;4954977;28;20038;-61
2022/04/04 11:26:01;;;;;;;1.42;1.05;;;8.90;77.70;;;;;;4970930;28;20087;-58
2022/04/04 11:28:32;;;;;;;0.10;0.10;;;9.00;78.90;;;;;;4969610;28;20027;-60
2022/04/04 11:31:25;;;;;;;0.08;0.08;;;9.00;75.30;;;;;;4970011;28;20033;-60
2022/04/04 11:33:56;;;;;;;0.05;0.05;;;9.00;77.30;;;;;;4969293;28;20065;-59
2022/04/04 11:36:30;;;;;;;0.35;0.35;;;9.30;76.20;;;;;;4971175;28;20045;-59
2022/04/04 11:39:03;;;;;;;0.00;0.00;;;9.60;71.10;;;;;;4970013;28;20034;-60
2022/04/04 11:41:36;;;;;;;0.10;0.10;;;9.50;72.10;;;;;;4971684;28;20504;-60
2022/04/04 11:44:05;;;;;;;2.20;0.45;;;9.60;69.60;;;;;;4970818;28;20027;-59
2022/04/04 11:46:32;;;;;;;0.15;0.15;;;9.70;68.60;;;;;;4969665;28;20069;-57
2022/04/04 11:48:59;;;;;;;0.10;0.10;;;9.80;66.40;;;;;;4969732;28;20124;-58
2022/04/04 11:51:36;;;;;;;0.38;0.35;;;9.80;67.80;;;;;;4971097;28;20031;-61
2022/04/04 11:54:07;;;;;;;0.50;0.50;;;10.00;67.20;;;;;;4957346;28;20058;-59
2022/04/04 11:56:33;;;;;;;0.63;0.63;;;10.00;67.30;;;;;;4974085;28;20541;-59
2022/04/04 11:59:00;;;;;;;0.00;0.00;;;9.90;66.30;;;;;;4973996;28;20038;-60
2022/04/04 12:01:34;;;;;;;0.90;0.63;;;9.70;64.90;;;;;;4974555;28;20034;-60
2022/04/04 12:04:01;;;;;;;0.00;0.00;;;9.80;66.30;;;;;;4971707;28;20125;-58
2022/04/04 12:06:29;;;;;;;0.00;0.00;;;9.80;67.00;;;;;;4956743;28;20038;-60
2022/04/04 12:08:57;;;;;;;0.63;0.63;;;9.90;65.70;;;;;;4954718;28;20035;-60
2022/04/04 12:11:29;;;;;;;0.38;0.38;;;10.00;66.40;;;;;;4953626;29;20114;-59
2022/04/04 12:14:00;;;;;;;0.00;0.00;;;10.00;64.40;;;;;;4964387;28;20046;-60
2022/04/04 12:16:27;;;;;;;0.03;0.03;;;10.30;63.00;;;;;;4974040;28;20038;-59
2022/04/04 12:19:01;;;;;;;0.10;0.10;;;10.30;63.30;;;;;;4974087;28;20035;-59
2022/04/04 12:21:27;;;;;;;0.43;0.43;;;10.40;63.40;;;;;;4974059;28;20022;-60
2022/04/04 12:26:38;;;;;;;9.63;2.20;;;10.50;65.30;;;;;;4963390;28;20492;-61
2022/04/04 12:29:11;;;;;;;0.30;0.30;;;10.60;65.40;;;;;;4953233;28;20046;-58
2022/04/04 12:31:37;;;;;;;0.10;0.10;;;10.40;63.00;;;;;;4953301;29;20452;-60
2022/04/04 12:34:10;;;;;;;0.05;0.05;;;10.80;62.20;;;;;;4954605;28;20085;-58
2022/04/04 12:36:41;;;;;;;0.22;0.22;;;10.80;61.10;;;;;;4953045;28;20039;-60
2022/04/04 12:39:16;;;;;;;0.10;0.10;;;10.80;62.00;;;;;;4954340;28;20035;-60
2022/04/04 12:41:51;;;;;;;0.00;0.00;;;11.00;61.70;;;;;;4953406;28;20507;-56
2022/04/04 12:44:28;;;;;;;0.20;0.20;;;11.30;60.60;;;;;;4965564;28;20041;-60
2022/04/04 12:47:14;;;;;;;0.10;0.10;;;11.20;61.40;;;;;;4973297;28;20089;-59
2022/04/04 12:49:41;;;;;;;0.70;0.65;;;11.30;59.80;;;;;;4973519;28;20037;-60
2022/04/04 12:52:10;;;;;;;0.38;0.30;;;11.20;60.40;;;;;;4972559;28;20121;-59
2022/04/04 12:54:39;;;;;;;0.00;0.00;;;11.00;60.50;;;;;;4972276;28;20034;-59
2022/04/04 12:57:09;;;;;;;0.20;0.20;;;10.90;61.00;;;;;;4972957;28;20031;-59
2022/04/04 12:59:58;;;;;;;0.10;0.10;;;10.80;60.00;;;;;;4972073;28;20525;-59
2022/04/04 13:02:32;;;;;;;0.20;0.20;;;10.90;61.20;;;;;;4971682;28;20395;-61
2022/04/04 13:05:16;;;;;;;0.10;0.10;;;10.80;61.20;;;;;;4973584;28;20035;-59
2022/04/04 13:07:56;;;;;;;0.32;0.32;;;10.40;60.60;;;;;;4971863;28;20031;-60